createdAt,value
2023-10-26T00:01:45.379Z,11.44
2023-10-26T00:04:12.115Z,11.51
2023-10-26T00:06:38.855Z,11.51
2023-10-26T00:09:05.833Z,11.49
2023-10-26T00:11:32.589Z,11.33
2023-10-26T00:13:59.266Z,11.28
2023-10-26T00:16:25.911Z,11.21
2023-10-26T00:18:52.799Z,10.98
2023-10-26T00:21:20.278Z,10.75
2023-10-26T00:23:47.129Z,10.89
2023-10-26T00:26:13.879Z,10.81
2023-10-26T00:28:41.094Z,10.85
2023-10-26T00:31:07.855Z,10.93
2023-10-26T00:33:34.593Z,11.07
2023-10-26T00:36:01.305Z,10.85
2023-10-26T00:38:27.961Z,10.95
2023-10-26T00:40:54.664Z,11.02
2023-10-26T00:43:22.872Z,10.85
2023-10-26T00:45:53.727Z,10.96
2023-10-26T00:48:21.382Z,10.43
2023-10-26T00:50:49.869Z,10.61
2023-10-26T00:53:19.136Z,10.61
2023-10-26T00:55:48.590Z,10.77
2023-10-26T00:58:17.397Z,10.60
2023-10-26T01:00:44.934Z,10.70
2023-10-26T01:03:12.752Z,10.77
2023-10-26T01:05:39.447Z,10.82
2023-10-26T01:08:06.398Z,10.69
2023-10-26T01:10:35.870Z,10.65
2023-10-26T01:13:02.676Z,10.00
2023-10-26T01:15:31.603Z,10.17
2023-10-26T01:17:59.548Z,10.28
2023-10-26T01:20:26.398Z,10.19
2023-10-26T01:22:53.098Z,10.25
2023-10-26T01:25:19.908Z,10.16
2023-10-26T01:27:46.598Z,10.36
2023-10-26T01:30:14.194Z,10.30
2023-10-26T01:32:41.073Z,10.45
2023-10-26T01:35:08.101Z,10.44
2023-10-26T01:37:34.778Z,10.55
2023-10-26T01:40:01.757Z,10.25
2023-10-26T01:42:28.602Z,10.27
2023-10-26T01:44:56.616Z,10.10
2023-10-26T01:47:23.465Z,9.68
2023-10-26T01:49:50.176Z,9.76
2023-10-26T01:52:16.897Z,9.59
2023-10-26T01:54:43.973Z,9.74
2023-10-26T01:57:11.022Z,9.62
2023-10-26T01:59:37.879Z,9.80
2023-10-26T02:02:04.889Z,9.99
2023-10-26T02:04:31.514Z,9.94
2023-10-26T02:06:58.258Z,9.88
2023-10-26T02:09:25.065Z,10.07
2023-10-26T02:11:51.845Z,10.13
2023-10-26T02:14:19.184Z,9.86
2023-10-26T02:16:46.262Z,10.01
2023-10-26T02:19:15.319Z,9.87
2023-10-26T02:21:43.502Z,9.94
2023-10-26T02:24:10.313Z,9.77
2023-10-26T02:26:37.012Z,9.87
2023-10-26T02:29:03.802Z,9.79
2023-10-26T02:31:30.608Z,9.76
2023-10-26T02:33:57.422Z,9.68
2023-10-26T02:36:24.282Z,9.78
2023-10-26T02:38:51.031Z,9.88
2023-10-26T02:41:17.765Z,9.85
2023-10-26T02:43:44.421Z,9.67
2023-10-26T02:46:11.100Z,9.58
2023-10-26T02:48:38.605Z,9.36
2023-10-26T02:51:05.773Z,9.64
2023-10-26T02:53:33.377Z,9.48
2023-10-26T02:56:00.210Z,9.61
2023-10-26T02:58:26.908Z,9.62
2023-10-26T03:00:56.627Z,9.70
2023-10-26T03:03:24.127Z,9.67
2023-10-26T03:05:51.095Z,9.85
2023-10-26T03:08:18.260Z,9.74
2023-10-26T03:10:45.230Z,9.93
2023-10-26T03:13:12.854Z,9.79
2023-10-26T03:15:39.574Z,9.92
2023-10-26T03:18:08.020Z,10.15
2023-10-26T03:20:34.832Z,10.15
2023-10-26T03:23:01.554Z,10.10
2023-10-26T03:25:28.562Z,10.58
2023-10-26T03:27:55.732Z,11.50
2023-10-26T03:30:22.563Z,11.98
2023-10-26T03:32:49.357Z,13.44
2023-10-26T03:35:16.111Z,14.41
2023-10-26T03:37:42.903Z,14.85
2023-10-26T03:40:11.692Z,14.78
2023-10-26T03:42:38.388Z,14.75
2023-10-26T03:45:05.468Z,14.96
2023-10-26T03:47:32.292Z,14.91
2023-10-26T03:49:59.063Z,14.81
2023-10-26T03:52:25.819Z,14.70
2023-10-26T03:54:52.718Z,14.64
2023-10-26T03:57:19.577Z,14.73
2023-10-26T03:59:46.352Z,14.73
2023-10-26T04:02:13.136Z,14.73
2023-10-26T04:04:41.595Z,14.65
2023-10-26T04:07:09.246Z,14.62
2023-10-26T04:09:36.157Z,14.68
2023-10-26T04:12:02.912Z,14.69
2023-10-26T04:14:29.687Z,14.59
2023-10-26T04:17:02.207Z,14.48
2023-10-26T04:19:28.947Z,14.43
2023-10-26T04:21:55.641Z,14.64
2023-10-26T04:24:22.451Z,14.72
2023-10-26T04:26:49.208Z,14.90
2023-10-26T04:29:16.030Z,14.69
2023-10-26T04:31:42.855Z,14.69
2023-10-26T04:34:09.598Z,14.66
2023-10-26T04:36:36.268Z,14.56
2023-10-26T04:39:03.045Z,14.58
2023-10-26T04:41:29.738Z,14.52
2023-10-26T04:43:56.454Z,14.55
2023-10-26T04:46:23.138Z,14.58
2023-10-26T04:48:49.937Z,14.63
2023-10-26T04:51:16.663Z,14.53
2023-10-26T04:53:43.367Z,14.41
2023-10-26T04:56:12.455Z,14.49
2023-10-26T04:58:39.491Z,14.58
2023-10-26T05:01:06.846Z,14.77
2023-10-26T05:03:33.687Z,14.81
2023-10-26T05:06:00.611Z,14.95
2023-10-26T05:08:27.568Z,14.96
2023-10-26T05:10:54.302Z,15.04
2023-10-26T05:13:21.028Z,15.19
2023-10-26T05:15:47.726Z,15.25
2023-10-26T05:18:14.542Z,15.23
2023-10-26T05:20:41.265Z,15.27
2023-10-26T05:23:09.525Z,15.36
2023-10-26T05:25:37.508Z,15.41
2023-10-26T05:28:04.823Z,15.39
2023-10-26T05:30:31.642Z,15.40
2023-10-26T05:32:58.467Z,15.41
2023-10-26T05:35:25.341Z,15.42
2023-10-26T05:37:53.515Z,15.53
2023-10-26T05:40:20.349Z,15.61
2023-10-26T05:42:47.025Z,15.62
2023-10-26T05:45:13.828Z,15.56
2023-10-26T05:47:41.104Z,15.51
2023-10-26T05:50:09.053Z,15.73
2023-10-26T05:52:35.742Z,15.77
2023-10-26T05:55:03.957Z,15.83
2023-10-26T05:57:30.702Z,15.81
2023-10-26T05:59:57.509Z,15.84
2023-10-26T06:02:25.250Z,15.78
2023-10-26T06:04:52.165Z,15.80
2023-10-26T06:07:18.886Z,15.81
2023-10-26T06:09:45.501Z,15.74
2023-10-26T06:12:12.441Z,15.77
2023-10-26T06:14:39.252Z,15.86
2023-10-26T06:17:05.975Z,15.90
2023-10-26T06:19:33.185Z,16.09
2023-10-26T06:21:59.874Z,16.27
2023-10-26T06:24:26.614Z,16.23
2023-10-26T06:26:53.360Z,16.27
2023-10-26T06:29:20.539Z,16.19
2023-10-26T06:31:47.221Z,16.19
2023-10-26T06:34:14.314Z,16.30
2023-10-26T06:36:41.086Z,16.53
2023-10-26T06:39:07.872Z,16.64
2023-10-26T06:41:34.677Z,16.77
2023-10-26T06:44:01.436Z,16.76
2023-10-26T06:46:28.175Z,16.85
2023-10-26T06:48:55.722Z,16.89
2023-10-26T06:51:23.698Z,17.36
2023-10-26T06:53:50.930Z,17.63
2023-10-26T06:56:17.665Z,17.44
2023-10-26T06:58:44.754Z,16.88
2023-10-26T07:01:20.691Z,16.77
2023-10-26T07:03:49.737Z,15.86
2023-10-26T07:06:16.788Z,15.41
2023-10-26T07:08:43.456Z,15.06
2023-10-26T07:11:10.179Z,15.10
2023-10-26T07:13:36.879Z,15.23
2023-10-26T07:16:04.588Z,14.89
2023-10-26T07:18:31.447Z,14.81
2023-10-26T07:20:58.408Z,14.89
2023-10-26T07:23:25.197Z,14.85
2023-10-26T07:25:51.987Z,14.76
2023-10-26T07:28:18.720Z,14.89
2023-10-26T07:30:45.923Z,14.91
2023-10-26T07:33:12.687Z,14.95
2023-10-26T07:35:42.275Z,15.30
2023-10-26T07:38:36.990Z,16.13
2023-10-26T07:41:01.536Z,16.13
2023-10-26T07:43:29.133Z,15.92
2023-10-26T07:45:56.805Z,15.33
2023-10-26T07:48:23.590Z,15.18
2023-10-26T07:50:52.137Z,15.11
2023-10-26T07:53:18.865Z,15.38
2023-10-26T07:55:45.988Z,15.95
2023-10-26T07:58:12.676Z,15.71
2023-10-26T08:00:39.392Z,15.87
2023-10-26T08:03:06.266Z,16.11
2023-10-26T08:05:33.006Z,16.06
2023-10-26T08:07:59.760Z,16.30
2023-10-26T08:10:27.391Z,16.05
2023-10-26T08:12:54.669Z,16.01
2023-10-26T08:16:28.970Z,15.90
2023-10-26T08:18:08.780Z,15.69
2023-10-26T08:20:35.646Z,15.73
2023-10-26T08:23:05.611Z,15.60
2023-10-26T08:25:38.633Z,15.49
2023-10-26T08:28:05.393Z,15.54
2023-10-26T08:30:32.025Z,15.48
2023-10-26T08:33:01.102Z,15.74
2023-10-26T08:35:27.996Z,15.76
2023-10-26T08:37:55.188Z,15.79
2023-10-26T08:40:22.337Z,16.01
2023-10-26T08:42:49.076Z,15.70
2023-10-26T08:45:23.886Z,15.50
2023-10-26T08:47:51.658Z,15.44
2023-10-26T08:50:23.775Z,15.38
2023-10-26T08:52:52.592Z,15.34
2023-10-26T08:55:19.452Z,15.45
2023-10-26T08:57:52.068Z,15.53
2023-10-26T09:00:19.697Z,15.74
2023-10-26T09:02:49.391Z,15.83
2023-10-26T09:05:16.640Z,15.78
2023-10-26T09:07:43.429Z,15.62
2023-10-26T09:10:10.727Z,15.47
2023-10-26T09:12:37.863Z,15.31
2023-10-26T09:15:11.662Z,15.23
2023-10-26T09:17:38.698Z,15.19
2023-10-26T09:20:26.116Z,14.99
2023-10-26T09:22:53.216Z,14.88
2023-10-26T09:25:20.295Z,14.77
2023-10-26T09:27:47.461Z,14.73
2023-10-26T09:30:30.842Z,14.28
2023-10-26T09:32:58.533Z,14.22
2023-10-26T09:35:34.953Z,13.84
2023-10-26T09:38:01.988Z,13.68
2023-10-26T09:40:29.387Z,13.53
2023-10-26T09:42:59.513Z,13.39
2023-10-26T09:45:26.943Z,13.33
2023-10-26T09:47:54.058Z,13.39
2023-10-26T09:50:22.163Z,13.29
2023-10-26T09:52:49.920Z,13.28
2023-10-26T09:55:17.424Z,13.25
2023-10-26T09:57:54.572Z,13.23
2023-10-26T10:00:30.648Z,13.17
2023-10-26T10:03:14.508Z,13.27
2023-10-26T10:05:48.128Z,13.42
2023-10-26T10:08:15.473Z,13.55
2023-10-26T10:11:18.517Z,13.80
2023-10-26T10:13:45.609Z,13.97
2023-10-26T10:16:38.014Z,14.27
2023-10-26T10:19:24.613Z,14.85
2023-10-26T10:21:53.303Z,15.65
2023-10-26T10:24:46.374Z,16.52
2023-10-26T10:27:16.724Z,16.88
2023-10-26T10:29:43.988Z,16.64
2023-10-26T10:32:12.275Z,17.65
2023-10-26T10:34:46.989Z,17.70
2023-10-26T10:37:23.123Z,17.73
2023-10-26T10:40:15.873Z,17.66
2023-10-26T10:42:52.892Z,17.94
2023-10-26T10:45:20.264Z,18.46
2023-10-26T10:47:50.438Z,19.06
2023-10-26T10:50:25.154Z,19.67
2023-10-26T10:52:56.455Z,19.65
2023-10-26T10:55:29.926Z,19.67
2023-10-26T10:57:56.727Z,19.94
2023-10-26T11:00:25.812Z,20.13
2023-10-26T11:03:00.649Z,19.70
2023-10-26T11:05:41.249Z,20.10
2023-10-26T11:08:08.889Z,19.93
2023-10-26T11:10:36.255Z,19.93
2023-10-26T11:13:03.726Z,20.23
2023-10-26T11:15:38.342Z,20.00
2023-10-26T11:18:08.020Z,19.79
2023-10-26T11:20:43.737Z,19.17
2023-10-26T11:23:12.171Z,18.59
2023-10-26T11:25:39.633Z,17.79
2023-10-26T11:28:07.654Z,18.63
2023-10-26T11:30:51.975Z,18.81
2023-10-26T11:33:39.756Z,18.82
2023-10-26T11:36:10.921Z,19.48
2023-10-26T11:38:49.294Z,19.90
2023-10-26T11:41:26.902Z,19.20
2023-10-26T11:43:53.720Z,18.87
2023-10-26T11:46:34.591Z,17.99
2023-10-26T11:49:08.896Z,17.65
2023-10-26T11:51:38.654Z,17.56
2023-10-26T11:54:13.676Z,17.06
2023-10-26T11:56:40.470Z,17.24
2023-10-26T11:59:07.231Z,16.77
2023-10-26T12:01:34.076Z,16.97
2023-10-26T12:04:00.837Z,17.38
2023-10-26T12:06:31.118Z,17.75
2023-10-26T12:08:57.905Z,18.39
2023-10-26T12:11:24.820Z,18.68
2023-10-26T12:13:51.559Z,18.31
2023-10-26T12:16:18.363Z,18.26
2023-10-26T12:18:45.162Z,18.48
2023-10-26T12:21:11.964Z,18.78
2023-10-26T12:23:39.005Z,18.90
2023-10-26T12:26:05.659Z,18.66
2023-10-26T12:28:32.374Z,17.93
2023-10-26T12:30:59.352Z,18.13
2023-10-26T12:33:26.187Z,18.08
2023-10-26T12:35:52.868Z,18.05
2023-10-26T12:38:23.409Z,17.34
2023-10-26T12:40:50.417Z,16.95
2023-10-26T12:43:17.641Z,17.14
2023-10-26T12:45:44.485Z,17.47
2023-10-26T12:48:14.040Z,18.35
2023-10-26T12:50:40.737Z,18.39
2023-10-26T12:53:07.514Z,18.68
2023-10-26T12:55:35.671Z,18.48
2023-10-26T12:58:02.535Z,18.32
2023-10-26T13:00:29.383Z,17.63
2023-10-26T13:02:57.733Z,17.92
2023-10-26T13:05:24.480Z,17.54
2023-10-26T13:07:52.073Z,17.25
2023-10-26T13:10:18.805Z,17.06
2023-10-26T13:12:48.300Z,16.56
2023-10-26T13:15:21.413Z,16.87
2023-10-26T13:17:48.527Z,17.07
2023-10-26T13:20:15.283Z,17.34
2023-10-26T13:22:41.980Z,17.26
2023-10-26T13:25:09.039Z,17.18
2023-10-26T13:27:35.839Z,17.23
2023-10-26T13:30:02.915Z,17.69
2023-10-26T13:32:29.620Z,17.45
2023-10-26T13:34:56.331Z,16.63
2023-10-26T13:37:23.053Z,16.92
2023-10-26T13:39:49.812Z,16.77
2023-10-26T13:42:16.541Z,16.66
2023-10-26T13:44:45.002Z,16.52
2023-10-26T13:47:12.214Z,16.53
2023-10-26T13:49:39.218Z,16.25
2023-10-26T13:52:06.282Z,16.06
2023-10-26T13:54:33.063Z,15.90
2023-10-26T13:56:59.904Z,15.96
2023-10-26T13:59:26.607Z,16.12
2023-10-26T14:01:53.333Z,15.79
2023-10-26T14:04:20.089Z,15.77
2023-10-26T14:06:46.907Z,15.83
2023-10-26T14:09:14.656Z,15.66
2023-10-26T14:11:41.369Z,15.62
2023-10-26T14:14:08.169Z,15.43
2023-10-26T14:16:34.881Z,15.45
2023-10-26T14:19:04.836Z,15.60
2023-10-26T14:21:31.619Z,15.56
2023-10-26T14:23:58.348Z,15.43
2023-10-26T14:26:25.091Z,15.55
2023-10-26T14:28:51.828Z,15.41
2023-10-26T14:31:18.572Z,15.23
2023-10-26T14:33:45.322Z,15.06
2023-10-26T14:36:12.060Z,15.21
2023-10-26T14:38:38.715Z,15.03
2023-10-26T14:41:05.419Z,14.80
2023-10-26T14:43:32.131Z,15.00
2023-10-26T14:45:58.828Z,14.90
2023-10-26T14:48:25.689Z,14.96
2023-10-26T14:50:59.928Z,14.93
2023-10-26T14:53:26.887Z,14.99
2023-10-26T14:55:53.884Z,15.00
2023-10-26T14:58:21.979Z,14.97
2023-10-26T15:00:51.213Z,15.00
2023-10-26T15:03:18.031Z,15.02
2023-10-26T15:05:44.799Z,14.94
2023-10-26T15:08:11.901Z,14.86
2023-10-26T15:10:38.750Z,14.83
2023-10-26T15:13:06.091Z,14.75
2023-10-26T15:15:32.914Z,14.66
2023-10-26T15:18:00.000Z,14.55
2023-10-26T15:20:26.925Z,14.53
2023-10-26T15:22:59.227Z,14.40
2023-10-26T15:25:25.909Z,14.40
2023-10-26T15:27:53.696Z,14.35
2023-10-26T15:30:20.677Z,14.32
2023-10-26T15:32:47.452Z,14.22
2023-10-26T15:35:14.358Z,14.12
2023-10-26T15:37:41.071Z,14.14
2023-10-26T15:40:11.343Z,14.08
2023-10-26T15:42:38.085Z,14.08
2023-10-26T15:45:05.685Z,14.06
2023-10-26T15:47:32.388Z,14.00
2023-10-26T15:50:00.416Z,13.98
2023-10-26T15:52:27.130Z,14.10
2023-10-26T15:54:54.290Z,14.03
2023-10-26T15:57:21.123Z,14.03
2023-10-26T15:59:47.985Z,14.00
2023-10-26T16:02:14.773Z,14.07
2023-10-26T16:04:41.678Z,14.12
2023-10-26T16:07:08.346Z,14.18
2023-10-26T16:09:37.379Z,14.18
2023-10-26T16:12:05.015Z,14.18
2023-10-26T16:14:31.796Z,14.14
2023-10-26T16:16:58.521Z,14.13
2023-10-26T16:19:26.889Z,14.08
2023-10-26T16:21:53.759Z,14.04
2023-10-26T16:24:21.038Z,13.99
2023-10-26T16:26:48.046Z,14.04
2023-10-26T16:29:14.822Z,13.96
2023-10-26T16:31:41.516Z,13.87
2023-10-26T16:34:08.368Z,13.91
2023-10-26T16:36:35.148Z,13.80
2023-10-26T16:39:01.861Z,13.81
2023-10-26T16:41:28.629Z,13.73
2023-10-26T16:43:55.285Z,13.68
2023-10-26T16:46:22.133Z,13.64
2023-10-26T16:48:48.973Z,13.63
2023-10-26T16:51:16.351Z,13.59
2023-10-26T16:53:43.944Z,13.65
2023-10-26T16:56:10.921Z,13.60
2023-10-26T16:58:37.795Z,13.67
2023-10-26T17:01:06.788Z,13.50
2023-10-26T17:03:33.717Z,13.57
2023-10-26T17:06:00.431Z,13.52
2023-10-26T17:08:27.096Z,13.54
2023-10-26T17:10:53.954Z,13.49
2023-10-26T17:13:22.298Z,13.52
2023-10-26T17:15:52.614Z,13.45
2023-10-26T17:18:21.313Z,13.49
2023-10-26T17:20:48.366Z,13.50
2023-10-26T17:23:15.553Z,13.38
2023-10-26T17:25:42.632Z,13.33
2023-10-26T17:28:09.804Z,13.37
2023-10-26T17:30:38.050Z,13.24
2023-10-26T17:33:05.425Z,13.30
2023-10-26T17:35:38.858Z,13.22
2023-10-26T17:38:06.010Z,13.21
2023-10-26T17:40:32.781Z,13.22
2023-10-26T17:42:59.521Z,13.09
2023-10-26T17:45:26.767Z,13.07
2023-10-26T17:47:53.475Z,13.10
2023-10-26T17:50:20.145Z,12.80
2023-10-26T17:52:46.835Z,12.74
2023-10-26T17:55:14.778Z,12.60
2023-10-26T17:57:41.595Z,12.48
2023-10-26T18:00:09.623Z,12.47
2023-10-26T18:02:38.119Z,12.48
2023-10-26T18:05:05.249Z,12.45
2023-10-26T18:07:32.019Z,12.31
2023-10-26T18:09:58.686Z,12.38
2023-10-26T18:12:27.526Z,12.27
2023-10-26T18:14:54.250Z,12.31
2023-10-26T18:17:21.698Z,12.50
2023-10-26T18:19:48.464Z,12.56
2023-10-26T18:22:15.268Z,12.49
2023-10-26T18:24:42.214Z,12.45
2023-10-26T18:27:08.980Z,12.41
2023-10-26T18:29:35.741Z,12.60
2023-10-26T18:32:02.398Z,12.63
2023-10-26T18:34:29.056Z,12.32
2023-10-26T18:36:55.808Z,12.31
2023-10-26T18:39:22.639Z,12.53
2023-10-26T18:41:49.370Z,12.40
2023-10-26T18:44:16.222Z,12.50
2023-10-26T18:46:42.908Z,12.57
2023-10-26T18:49:10.021Z,12.57
2023-10-26T18:51:36.962Z,12.48
2023-10-26T18:54:04.603Z,12.55
2023-10-26T18:56:31.900Z,12.68
2023-10-26T18:59:00.226Z,12.44
2023-10-26T19:01:27.899Z,12.56
2023-10-26T19:04:02.669Z,12.61
2023-10-26T19:06:31.013Z,12.67
2023-10-26T19:08:58.140Z,12.66
2023-10-26T19:11:24.837Z,12.58
2023-10-26T19:13:51.911Z,12.65
2023-10-26T19:16:18.927Z,12.51
2023-10-26T19:18:45.842Z,12.56
2023-10-26T19:21:12.569Z,12.65
2023-10-26T19:23:39.262Z,12.45
2023-10-26T19:26:05.978Z,12.49
2023-10-26T19:28:35.204Z,12.44
2023-10-26T19:31:02.098Z,12.43
2023-10-26T19:33:28.779Z,12.42
2023-10-26T19:35:55.508Z,12.39
2023-10-26T19:38:22.178Z,12.42
2023-10-26T19:40:48.973Z,12.43
2023-10-26T19:43:15.686Z,12.26
2023-10-26T19:45:43.537Z,12.27
2023-10-26T19:48:10.492Z,12.28
2023-10-26T19:50:37.492Z,12.38
2023-10-26T19:53:04.887Z,12.26
2023-10-26T19:55:31.898Z,12.29
2023-10-26T19:57:58.701Z,12.30
2023-10-26T20:00:25.893Z,12.33
2023-10-26T20:02:52.594Z,12.30
2023-10-26T20:05:19.926Z,12.25
2023-10-26T20:07:46.597Z,12.28
2023-10-26T20:10:13.332Z,12.25
2023-10-26T20:12:40.175Z,12.19
2023-10-26T20:15:09.479Z,12.27
2023-10-26T20:17:36.308Z,12.38
2023-10-26T20:20:07.896Z,12.41
2023-10-26T20:22:35.023Z,12.37
2023-10-26T20:25:01.939Z,12.27
2023-10-26T20:27:28.730Z,12.32
2023-10-26T20:29:55.480Z,12.23
2023-10-26T20:32:22.739Z,12.25
2023-10-26T20:34:49.594Z,12.34
2023-10-26T20:37:16.436Z,12.30
2023-10-26T20:39:44.740Z,12.28
2023-10-26T20:42:11.668Z,12.37
2023-10-26T20:44:38.586Z,12.41
2023-10-26T20:47:06.290Z,12.51
2023-10-26T20:49:32.970Z,12.29
2023-10-26T20:51:59.764Z,12.40
2023-10-26T20:54:26.414Z,12.38
2023-10-26T20:56:53.112Z,12.34
2023-10-26T20:59:19.930Z,12.36
2023-10-26T21:01:46.695Z,12.50
2023-10-26T21:04:13.513Z,12.49
2023-10-26T21:06:40.241Z,12.30
2023-10-26T21:09:06.918Z,12.43
2023-10-26T21:11:33.658Z,12.60
2023-10-26T21:14:00.989Z,12.54
2023-10-26T21:16:27.902Z,12.66
2023-10-26T21:18:54.772Z,12.46
2023-10-26T21:21:21.470Z,12.45
2023-10-26T21:23:48.204Z,12.49
2023-10-26T21:26:15.018Z,12.33
2023-10-26T21:28:42.887Z,12.12
2023-10-26T21:31:09.927Z,12.10
2023-10-26T21:33:37.812Z,12.14
2023-10-26T21:36:06.080Z,11.98
2023-10-26T21:38:32.791Z,12.04
2023-10-26T21:41:05.118Z,12.04
2023-10-26T21:43:33.362Z,12.05
2023-10-26T21:46:06.813Z,11.99
2023-10-26T21:48:34.258Z,11.88
2023-10-26T21:51:12.279Z,11.71
2023-10-26T21:53:39.647Z,11.73
2023-10-26T21:56:06.791Z,11.71
2023-10-26T21:58:33.897Z,11.80
2023-10-26T22:01:00.716Z,11.81
2023-10-26T22:03:27.439Z,11.78
2023-10-26T22:05:54.103Z,11.58
2023-10-26T22:08:20.794Z,11.49
2023-10-26T22:10:47.484Z,11.44
2023-10-26T22:13:14.541Z,11.38
2023-10-26T22:15:41.287Z,11.33
2023-10-26T22:18:08.779Z,11.25
2023-10-26T22:20:37.400Z,11.26
2023-10-26T22:23:05.141Z,11.15
2023-10-26T22:25:32.316Z,11.18
2023-10-26T22:27:59.142Z,10.78
2023-10-26T22:30:26.022Z,10.82
2023-10-26T22:32:52.809Z,10.78
2023-10-26T22:35:20.123Z,10.72
2023-10-26T22:37:46.750Z,10.70
2023-10-26T22:40:13.751Z,10.18
2023-10-26T22:42:40.478Z,10.20
2023-10-26T22:45:07.792Z,10.43
2023-10-26T22:47:35.073Z,10.49
2023-10-26T22:50:02.095Z,10.50
2023-10-26T22:52:28.847Z,10.49
2023-10-26T22:54:55.671Z,10.54
2023-10-26T22:57:22.471Z,10.61
2023-10-26T22:59:55.994Z,10.64
2023-10-26T23:02:23.284Z,10.63
2023-10-26T23:04:52.061Z,10.45
2023-10-26T23:07:18.801Z,10.43
2023-10-26T23:09:46.196Z,10.32
2023-10-26T23:12:13.760Z,10.37
2023-10-26T23:14:40.422Z,10.40
2023-10-26T23:17:07.059Z,10.31
2023-10-26T23:19:33.766Z,10.13
2023-10-26T23:22:00.940Z,10.17
2023-10-26T23:24:31.913Z,10.10
2023-10-26T23:26:58.651Z,10.10
2023-10-26T23:29:26.892Z,10.14
2023-10-26T23:31:53.572Z,9.96
2023-10-26T23:34:20.313Z,9.94
2023-10-26T23:36:47.075Z,9.93
2023-10-26T23:39:13.870Z,9.92
2023-10-26T23:41:40.893Z,10.02
2023-10-26T23:44:08.198Z,9.96
2023-10-26T23:46:35.371Z,9.68
2023-10-26T23:49:02.123Z,9.81
2023-10-26T23:51:28.807Z,9.72
2023-10-26T23:53:55.537Z,9.75
2023-10-26T23:56:22.293Z,9.82
2023-10-26T23:58:48.954Z,9.67
